Irwin, Idaho
Current Conditions -  °F | °C
As of 2:56 AM on Wednesday 26 Nov 2014 (Local Time) from KDIJ Reporting Station
Overcast Overcast  
Wind Chill: 33°   Ceiling: 6000
Heat Index: 38°   Visibility: 10mi
Dew Point: 33°   Wind: 6mph
Humidity: 82%   Direction: 180°S
Pressure: 30.17"   Gusts: NA
Location:  43.41°N, 111.3°W
Report Text: KDIJ 260956Z AUTO 18005KT 10SM SCT016 OVC060 03/01 A3017 RMK AO2 T00330005 SLP199
Loading
Personal Weather Stations






























Interactive Weather Map New forecast layout! Learn more

10-Day Weather Forecast

Advertisements
Track Severe Weather on mobile